sensor_id;sensor_type;location;lat;lon;timestamp;pressure;altitude;pressure_sealevel;temperature;humidity
68580;BME280;55555;52.136;5.424;2022-11-20T00:01:31;101651.56;;;-1.93;99.46
68580;BME280;55555;52.136;5.424;2022-11-20T00:04:00;101654.19;;;-1.93;100.00
68580;BME280;55555;52.136;5.424;2022-11-20T00:06:28;101643.69;;;-1.94;100.00
68580;BME280;55555;52.136;5.424;2022-11-20T00:08:58;101637.59;;;-1.96;100.00
68580;BME280;55555;52.136;5.424;2022-11-20T00:11:28;101642.69;;;-1.99;100.00
68580;BME280;55555;52.136;5.424;2022-11-20T00:13:59;101646.09;;;-2.02;100.00
68580;BME280;55555;52.136;5.424;2022-11-20T00:16:30;101643.38;;;-2.05;100.00
68580;BME280;55555;52.136;5.424;2022-11-20T00:18:59;101632.88;;;-2.08;100.00
68580;BME280;55555;52.136;5.424;2022-11-20T00:21:28;101644.88;;;-2.13;100.00
68580;BME280;55555;52.136;5.424;2022-11-20T00:23:56;101636.97;;;-2.16;100.00
68580;BME280;55555;52.136;5.424;2022-11-20T00:26:25;101644.72;;;-2.19;100.00
68580;BME280;55555;52.136;5.424;2022-11-20T00:28:56;101640.22;;;-2.23;99.94
68580;BME280;55555;52.136;5.424;2022-11-20T00:31:25;101642.75;;;-2.26;100.00
68580;BME280;55555;52.136;5.424;2022-11-20T00:33:54;101636.56;;;-2.30;99.39
68580;BME280;55555;52.136;5.424;2022-11-20T00:36:24;101637.19;;;-2.37;99.38
68580;BME280;55555;52.136;5.424;2022-11-20T00:38:55;101642.38;;;-2.38;99.42
68580;BME280;55555;52.136;5.424;2022-11-20T00:41:24;101629.97;;;-2.45;99.68
68580;BME280;55555;52.136;5.424;2022-11-20T00:43:54;101635.97;;;-2.49;99.43
68580;BME280;55555;52.136;5.424;2022-11-20T00:46:25;101637.41;;;-2.58;99.31
68580;BME280;55555;52.136;5.424;2022-11-20T00:48:53;101632.06;;;-2.62;98.44
68580;BME280;55555;52.136;5.424;2022-11-20T00:51:23;101643.09;;;-2.71;97.33
68580;BME280;55555;52.136;5.424;2022-11-20T00:53:51;101634.94;;;-2.81;97.72
68580;BME280;55555;52.136;5.424;2022-11-20T00:56:21;101629.72;;;-2.81;97.51
68580;BME280;55555;52.136;5.424;2022-11-20T00:58:49;101626.13;;;-2.85;97.66
68580;BME280;55555;52.136;5.424;2022-11-20T01:01:19;101618.22;;;-2.88;97.45
68580;BME280;55555;52.136;5.424;2022-11-20T01:03:50;101619.78;;;-2.93;97.75
68580;BME280;55555;52.136;5.424;2022-11-20T01:06:21;101621.44;;;-2.95;98.22
68580;BME280;55555;52.136;5.424;2022-11-20T01:08:55;101619.56;;;-2.99;97.83
68580;BME280;55555;52.136;5.424;2022-11-20T01:11:27;101616.03;;;-3.01;97.74
68580;BME280;55555;52.136;5.424;2022-11-20T01:13:57;101610.56;;;-3.09;97.62
68580;BME280;55555;52.136;5.424;2022-11-20T01:16:37;101620.94;;;-3.10;96.85
68580;BME280;55555;52.136;5.424;2022-11-20T01:19:14;101626.91;;;-3.13;97.38
68580;BME280;55555;52.136;5.424;2022-11-20T01:21:45;101612.09;;;-3.15;97.11
68580;BME280;55555;52.136;5.424;2022-11-20T01:24:16;101612.94;;;-3.16;97.18
68580;BME280;55555;52.136;5.424;2022-11-20T01:26:47;101603.25;;;-3.20;97.64
68580;BME280;55555;52.136;5.424;2022-11-20T01:29:19;101608.25;;;-3.26;96.38
68580;BME280;55555;52.136;5.424;2022-11-20T01:31:52;101603.81;;;-3.29;96.85
68580;BME280;55555;52.136;5.424;2022-11-20T01:34:21;101608.91;;;-3.32;97.32
68580;BME280;55555;52.136;5.424;2022-11-20T01:36:50;101606.16;;;-3.37;96.53
68580;BME280;55555;52.136;5.424;2022-11-20T01:39:23;101607.81;;;-3.39;96.52
68580;BME280;55555;52.136;5.424;2022-11-20T01:41:54;101609.59;;;-3.38;96.69
68580;BME280;55555;52.136;5.424;2022-11-20T01:47:27;101601.75;;;-3.39;97.17
68580;BME280;55555;52.136;5.424;2022-11-20T01:50:24;101608.53;;;-3.43;97.20
68580;BME280;55555;52.136;5.424;2022-11-20T01:52:58;101604.09;;;-3.47;96.71
68580;BME280;55555;52.136;5.424;2022-11-20T01:55:34;101603.19;;;-3.47;97.10
68580;BME280;55555;52.136;5.424;2022-11-20T01:58:06;101600.53;;;-3.49;97.64
68580;BME280;55555;52.136;5.424;2022-11-20T02:00:35;101602.19;;;-3.51;96.82
68580;BME280;55555;52.136;5.424;2022-11-20T02:03:11;101601.81;;;-3.61;95.88
68580;BME280;55555;52.136;5.424;2022-11-20T02:06:04;101595.84;;;-3.59;95.84
68580;BME280;55555;52.136;5.424;2022-11-20T02:08:52;101593.06;;;-3.63;96.32
68580;BME280;55555;52.136;5.424;2022-11-20T02:11:21;101595.56;;;-3.67;96.02
68580;BME280;55555;52.136;5.424;2022-11-20T02:13:49;101598.34;;;-3.62;97.03
68580;BME280;55555;52.136;5.424;2022-11-20T02:16:24;101592.13;;;-3.65;96.75
68580;BME280;55555;52.136;5.424;2022-11-20T02:18:54;101591.81;;;-3.75;95.93
68580;BME280;55555;52.136;5.424;2022-11-20T02:24:20;101590.22;;;-3.71;96.86
68580;BME280;55555;52.136;5.424;2022-11-20T02:26:52;101593.53;;;-3.75;96.65
68580;BME280;55555;52.136;5.424;2022-11-20T02:30:02;101591.59;;;-3.81;95.83
68580;BME280;55555;52.136;5.424;2022-11-20T02:32:34;101589.06;;;-3.79;96.46
68580;BME280;55555;52.136;5.424;2022-11-20T02:37:51;101583.88;;;-3.79;96.56
68580;BME280;55555;52.136;5.424;2022-11-20T02:40:21;101573.34;;;-3.82;96.85
68580;BME280;55555;52.136;5.424;2022-11-20T02:42:53;101579.44;;;-3.82;96.30
68580;BME280;55555;52.136;5.424;2022-11-20T02:45:22;101574.13;;;-3.85;96.23
68580;BME280;55555;52.136;5.424;2022-11-20T02:47:51;101570.56;;;-3.87;96.16
68580;BME280;55555;52.136;5.424;2022-11-20T02:50:19;101577.50;;;-3.87;96.63
68580;BME280;55555;52.136;5.424;2022-11-20T02:52:49;101579.13;;;-3.91;96.58
68580;BME280;55555;52.136;5.424;2022-11-20T02:55:16;101573.91;;;-3.91;96.31
68580;BME280;55555;52.136;5.424;2022-11-20T02:57:44;101571.25;;;-3.92;96.59
68580;BME280;55555;52.136;5.424;2022-11-20T03:00:12;101568.47;;;-3.97;96.34
68580;BME280;55555;52.136;5.424;2022-11-20T03:02:40;101558.97;;;-3.96;96.96
68580;BME280;55555;52.136;5.424;2022-11-20T03:05:08;101563.13;;;-4.01;96.52
68580;BME280;55555;52.136;5.424;2022-11-20T03:07:36;101568.34;;;-4.01;95.80
68580;BME280;55555;52.136;5.424;2022-11-20T03:10:04;101555.22;;;-4.05;95.81
68580;BME280;55555;52.136;5.424;2022-11-20T03:12:32;101548.44;;;-4.01;96.31
68580;BME280;55555;52.136;5.424;2022-11-20T03:15:00;101553.34;;;-4.09;96.26
68580;BME280;55555;52.136;5.424;2022-11-20T03:17:28;101549.63;;;-4.15;95.96
68580;BME280;55555;52.136;5.424;2022-11-20T03:19:56;101550.47;;;-4.16;95.54
68580;BME280;55555;52.136;5.424;2022-11-20T03:22:24;101545.47;;;-4.10;96.55
68580;BME280;55555;52.136;5.424;2022-11-20T03:24:51;101542.94;;;-4.09;96.31
68580;BME280;55555;52.136;5.424;2022-11-20T03:27:19;101548.06;;;-4.12;96.17
68580;BME280;55555;52.136;5.424;2022-11-20T03:29:47;101546.22;;;-4.14;96.69
68580;BME280;55555;52.136;5.424;2022-11-20T03:32:14;101546.97;;;-4.17;96.00
68580;BME280;55555;52.136;5.424;2022-11-20T03:34:42;101553.13;;;-4.15;95.97
68580;BME280;55555;52.136;5.424;2022-11-20T03:37:10;101545.28;;;-4.16;96.55
68580;BME280;55555;52.136;5.424;2022-11-20T03:39:38;101545.22;;;-4.18;96.03
68580;BME280;55555;52.136;5.424;2022-11-20T03:42:05;101545.00;;;-4.24;95.65
68580;BME280;55555;52.136;5.424;2022-11-20T03:44:53;101544.38;;;-4.17;96.61
68580;BME280;55555;52.136;5.424;2022-11-20T03:47:21;101541.72;;;-4.18;96.31
68580;BME280;55555;52.136;5.424;2022-11-20T03:49:48;101532.28;;;-4.16;96.01
68580;BME280;55555;52.136;5.424;2022-11-20T03:52:16;101534.00;;;-4.17;96.23
68580;BME280;55555;52.136;5.424;2022-11-20T03:54:44;101539.13;;;-4.18;96.44
68580;BME280;55555;52.136;5.424;2022-11-20T03:57:12;101533.88;;;-4.20;96.54
68580;BME280;55555;52.136;5.424;2022-11-20T03:59:39;101526.91;;;-4.21;96.36
68580;BME280;55555;52.136;5.424;2022-11-20T04:02:07;101537.28;;;-4.22;96.11
68580;BME280;55555;52.136;5.424;2022-11-20T04:04:35;101534.50;;;-4.27;95.83
68580;BME280;55555;52.136;5.424;2022-11-20T04:07:03;101532.84;;;-4.25;96.79
68580;BME280;55555;52.136;5.424;2022-11-20T04:09:31;101524.09;;;-4.27;95.69
68580;BME280;55555;52.136;5.424;2022-11-20T04:11:59;101518.91;;;-4.27;96.62
68580;BME280;55555;52.136;5.424;2022-11-20T04:14:27;101513.66;;;-4.28;95.76
68580;BME280;55555;52.136;5.424;2022-11-20T04:16:54;101514.47;;;-4.29;95.94
68580;BME280;55555;52.136;5.424;2022-11-20T04:19:22;101516.94;;;-4.34;95.71
68580;BME280;55555;52.136;5.424;2022-11-20T04:21:50;101511.66;;;-4.35;96.33
68580;BME280;55555;52.136;5.424;2022-11-20T04:24:18;101507.44;;;-4.32;96.33
68580;BME280;55555;52.136;5.424;2022-11-20T04:26:45;101508.25;;;-4.34;95.89
68580;BME280;55555;52.136;5.424;2022-11-20T04:29:13;101512.50;;;-4.36;95.32
68580;BME280;55555;52.136;5.424;2022-11-20T04:31:41;101525.19;;;-4.44;95.68
68580;BME280;55555;52.136;5.424;2022-11-20T04:34:11;101527.81;;;-4.44;95.52
68580;BME280;55555;52.136;5.424;2022-11-20T04:36:39;101522.69;;;-4.41;96.48
68580;BME280;55555;52.136;5.424;2022-11-20T04:39:12;101522.59;;;-4.44;95.64
68580;BME280;55555;52.136;5.424;2022-11-20T04:41:41;101510.50;;;-4.44;95.95
68580;BME280;55555;52.136;5.424;2022-11-20T04:44:09;101507.91;;;-4.44;96.38
68580;BME280;55555;52.136;5.424;2022-11-20T04:46:41;101495.75;;;-4.45;96.01
68580;BME280;55555;52.136;5.424;2022-11-20T04:49:10;101500.00;;;-4.47;95.84
68580;BME280;55555;52.136;5.424;2022-11-20T04:51:39;101505.13;;;-4.48;95.92
68580;BME280;55555;52.136;5.424;2022-11-20T04:54:06;101495.63;;;-4.48;96.01
68580;BME280;55555;52.136;5.424;2022-11-20T04:56:34;101496.28;;;-4.53;95.83
68580;BME280;55555;52.136;5.424;2022-11-20T04:59:02;101488.69;;;-4.49;96.14
68580;BME280;55555;52.136;5.424;2022-11-20T05:01:30;101479.88;;;-4.52;95.73
68580;BME280;55555;52.136;5.424;2022-11-20T05:03:59;101489.38;;;-4.53;95.55
68580;BME280;55555;52.136;5.424;2022-11-20T05:06:27;101496.88;;;-4.60;95.78
68580;BME280;55555;52.136;5.424;2022-11-20T05:08:54;101490.00;;;-4.60;95.45
68580;BME280;55555;52.136;5.424;2022-11-20T05:11:22;101491.00;;;-4.56;96.08
68580;BME280;55555;52.136;5.424;2022-11-20T05:13:51;101491.75;;;-4.59;96.16
68580;BME280;55555;52.136;5.424;2022-11-20T05:16:23;101488.41;;;-4.56;96.07
68580;BME280;55555;52.136;5.424;2022-11-20T05:18:53;101488.16;;;-4.62;95.40
68580;BME280;55555;52.136;5.424;2022-11-20T05:21:22;101498.53;;;-4.62;95.90
68580;BME280;55555;52.136;5.424;2022-11-20T05:23:49;101488.22;;;-4.61;96.17
68580;BME280;55555;52.136;5.424;2022-11-20T05:26:21;101483.72;;;-4.65;95.71
68580;BME280;55555;52.136;5.424;2022-11-20T05:28:50;101472.81;;;-4.56;95.75
68580;BME280;55555;52.136;5.424;2022-11-20T05:31:20;101464.22;;;-4.55;95.49
68580;BME280;55555;52.136;5.424;2022-11-20T05:33:55;101471.59;;;-4.66;95.38
68580;BME280;55555;52.136;5.424;2022-11-20T05:36:23;101464.59;;;-4.68;96.01
68580;BME280;55555;52.136;5.424;2022-11-20T05:38:51;101450.16;;;-4.60;95.73
68580;BME280;55555;52.136;5.424;2022-11-20T05:41:27;101455.34;;;-4.60;95.53
68580;BME280;55555;52.136;5.424;2022-11-20T05:43:55;101445.88;;;-4.60;95.78
68580;BME280;55555;52.136;5.424;2022-11-20T05:46:24;101452.88;;;-4.57;95.98
68580;BME280;55555;52.136;5.424;2022-11-20T05:48:56;101459.59;;;-4.62;95.80
68580;BME280;55555;52.136;5.424;2022-11-20T05:51:26;101460.38;;;-4.65;95.87
68580;BME280;55555;52.136;5.424;2022-11-20T05:53:57;101475.91;;;-4.66;95.64
68580;BME280;55555;52.136;5.424;2022-11-20T05:56:25;101480.91;;;-4.71;95.76
68580;BME280;55555;52.136;5.424;2022-11-20T05:58:53;101477.44;;;-4.71;95.41
68580;BME280;55555;52.136;5.424;2022-11-20T06:01:23;101474.00;;;-4.70;96.10
68580;BME280;55555;52.136;5.424;2022-11-20T06:03:53;101479.91;;;-4.74;95.95
68580;BME280;55555;52.136;5.424;2022-11-20T06:06:21;101486.09;;;-4.71;95.79
68580;BME280;55555;52.136;5.424;2022-11-20T06:08:49;101489.59;;;-4.70;96.01
68580;BME280;55555;52.136;5.424;2022-11-20T06:11:17;101492.13;;;-4.72;95.71
68580;BME280;55555;52.136;5.424;2022-11-20T06:13:45;101493.53;;;-4.80;95.11
68580;BME280;55555;52.136;5.424;2022-11-20T06:16:16;101495.31;;;-4.79;95.43
68580;BME280;55555;52.136;5.424;2022-11-20T06:18:46;101496.91;;;-4.83;95.50
68580;BME280;55555;52.136;5.424;2022-11-20T06:21:16;101497.66;;;-4.85;95.27
68580;BME280;55555;52.136;5.424;2022-11-20T06:23:46;101496.97;;;-4.81;95.61
68580;BME280;55555;52.136;5.424;2022-11-20T06:26:26;101501.25;;;-4.82;95.87
68580;BME280;55555;52.136;5.424;2022-11-20T06:28:54;101495.06;;;-4.85;95.45
68580;BME280;55555;52.136;5.424;2022-11-20T06:31:25;101489.06;;;-4.84;95.97
68580;BME280;55555;52.136;5.424;2022-11-20T06:33:53;101493.34;;;-4.85;95.75
68580;BME280;55555;52.136;5.424;2022-11-20T06:36:22;101490.53;;;-4.91;95.24
68580;BME280;55555;52.136;5.424;2022-11-20T06:38:50;101489.59;;;-4.93;95.73
68580;BME280;55555;52.136;5.424;2022-11-20T06:41:19;101488.09;;;-4.86;95.58
68580;BME280;55555;52.136;5.424;2022-11-20T06:43:48;101485.47;;;-4.88;95.48
68580;BME280;55555;52.136;5.424;2022-11-20T06:46:17;101504.34;;;-4.92;95.60
68580;BME280;55555;52.136;5.424;2022-11-20T06:48:47;101500.03;;;-4.91;95.88
68580;BME280;55555;52.136;5.424;2022-11-20T06:51:16;101496.75;;;-4.87;96.07
68580;BME280;55555;52.136;5.424;2022-11-20T06:53:44;101497.50;;;-4.90;95.53
68580;BME280;55555;52.136;5.424;2022-11-20T06:56:12;101493.13;;;-4.91;96.05
68580;BME280;55555;52.136;5.424;2022-11-20T06:58:39;101489.72;;;-4.90;95.83
68580;BME280;55555;52.136;5.424;2022-11-20T07:01:10;101484.66;;;-4.87;96.06
68580;BME280;55555;52.136;5.424;2022-11-20T07:03:40;101482.97;;;-4.85;95.57
68580;BME280;55555;52.136;5.424;2022-11-20T07:06:08;101478.03;;;-4.79;95.46
68580;BME280;55555;52.136;5.424;2022-11-20T07:08:36;101480.72;;;-4.75;95.96
68580;BME280;55555;52.136;5.424;2022-11-20T07:11:06;101479.75;;;-4.79;95.94
68580;BME280;55555;52.136;5.424;2022-11-20T07:13:34;101474.69;;;-4.76;95.81
68580;BME280;55555;52.136;5.424;2022-11-20T07:16:05;101469.66;;;-4.71;95.55
68580;BME280;55555;52.136;5.424;2022-11-20T07:18:34;101476.41;;;-4.75;95.69
68580;BME280;55555;52.136;5.424;2022-11-20T07:21:03;101474.72;;;-4.74;95.98
68580;BME280;55555;52.136;5.424;2022-11-20T07:23:32;101471.34;;;-4.72;96.30
68580;BME280;55555;52.136;5.424;2022-11-20T07:26:07;101474.84;;;-4.71;95.53
68580;BME280;55555;52.136;5.424;2022-11-20T07:28:36;101475.66;;;-4.72;95.51
68580;BME280;55555;52.136;5.424;2022-11-20T07:31:05;101469.72;;;-4.70;95.35
68580;BME280;55555;52.136;5.424;2022-11-20T07:33:34;101465.47;;;-4.68;95.61
68580;BME280;55555;52.136;5.424;2022-11-20T07:36:02;101456.84;;;-4.67;95.99
68580;BME280;55555;52.136;5.424;2022-11-20T07:38:30;101462.94;;;-4.66;96.06
68580;BME280;55555;52.136;5.424;2022-11-20T07:40:58;101463.91;;;-4.63;96.10
68580;BME280;55555;52.136;5.424;2022-11-20T07:43:28;101455.59;;;-4.54;96.06
68580;BME280;55555;52.136;5.424;2022-11-20T07:45:57;101451.25;;;-4.55;95.67
68580;BME280;55555;52.136;5.424;2022-11-20T07:48:26;101467.84;;;-4.50;95.63
68580;BME280;55555;52.136;5.424;2022-11-20T07:50:55;101458.53;;;-4.45;96.21
68580;BME280;55555;52.136;5.424;2022-11-20T07:53:23;101460.63;;;-4.35;96.57
68580;BME280;55555;52.136;5.424;2022-11-20T07:55:51;101459.81;;;-4.32;95.84
68580;BME280;55555;52.136;5.424;2022-11-20T07:58:20;101466.13;;;-4.26;96.67
68580;BME280;55555;52.136;5.424;2022-11-20T08:00:48;101463.59;;;-4.24;96.24
68580;BME280;55555;52.136;5.424;2022-11-20T08:03:16;101470.00;;;-4.15;96.38
68580;BME280;55555;52.136;5.424;2022-11-20T08:05:51;101470.19;;;-4.09;95.32
68580;BME280;55555;52.136;5.424;2022-11-20T08:08:19;101460.19;;;-3.98;96.74
68580;BME280;55555;52.136;5.424;2022-11-20T08:10:49;101460.34;;;-3.93;96.02
68580;BME280;55555;52.136;5.424;2022-11-20T08:13:17;101453.50;;;-3.91;96.48
68580;BME280;55555;52.136;5.424;2022-11-20T08:16:03;101449.59;;;-3.79;96.31
68580;BME280;55555;52.136;5.424;2022-11-20T08:18:31;101447.19;;;-3.73;96.92
68580;BME280;55555;52.136;5.424;2022-11-20T08:21:03;101450.16;;;-3.62;96.82
68580;BME280;55555;52.136;5.424;2022-11-20T08:23:31;101446.00;;;-3.57;96.46
68580;BME280;55555;52.136;5.424;2022-11-20T08:25:59;101437.50;;;-3.51;96.74
68580;BME280;55555;52.136;5.424;2022-11-20T08:28:27;101439.50;;;-3.43;96.73
68580;BME280;55555;52.136;5.424;2022-11-20T08:31:01;101438.91;;;-3.34;96.81
68580;BME280;55555;52.136;5.424;2022-11-20T08:33:29;101437.41;;;-3.27;97.03
68580;BME280;55555;52.136;5.424;2022-11-20T08:36:00;101437.56;;;-3.21;97.08
68580;BME280;55555;52.136;5.424;2022-11-20T08:38:29;101443.09;;;-3.11;96.71
68580;BME280;55555;52.136;5.424;2022-11-20T08:40:58;101446.75;;;-3.06;96.86
68580;BME280;55555;52.136;5.424;2022-11-20T08:43:45;101440.84;;;-3.00;97.83
68580;BME280;55555;52.136;5.424;2022-11-20T08:46:13;101443.69;;;-2.92;97.14
68580;BME280;55555;52.136;5.424;2022-11-20T08:48:41;101438.59;;;-2.88;96.97
68580;BME280;55555;52.136;5.424;2022-11-20T08:51:10;101432.72;;;-2.82;97.17
68580;BME280;55555;52.136;5.424;2022-11-20T08:53:39;101437.25;;;-2.75;97.91
68580;BME280;55555;52.136;5.424;2022-11-20T08:56:07;101435.63;;;-2.70;97.77
68580;BME280;55555;52.136;5.424;2022-11-20T08:58:37;101422.88;;;-2.63;97.31
68580;BME280;55555;52.136;5.424;2022-11-20T09:01:26;101427.34;;;-2.57;97.48
68580;BME280;55555;52.136;5.424;2022-11-20T09:03:57;101430.94;;;-2.53;97.21
68580;BME280;55555;52.136;5.424;2022-11-20T09:06:26;101429.31;;;-2.48;96.83
68580;BME280;55555;52.136;5.424;2022-11-20T09:08:54;101431.97;;;-2.47;97.47
68580;BME280;55555;52.136;5.424;2022-11-20T09:11:22;101425.97;;;-2.44;96.44
68580;BME280;55555;52.136;5.424;2022-11-20T09:13:50;101430.50;;;-2.37;97.17
68580;BME280;55555;52.136;5.424;2022-11-20T09:16:18;101425.38;;;-2.34;97.32
68580;BME280;55555;52.136;5.424;2022-11-20T09:18:45;101415.09;;;-2.30;97.74
68580;BME280;55555;52.136;5.424;2022-11-20T09:21:28;101416.09;;;-2.25;97.69
68580;BME280;55555;52.136;5.424;2022-11-20T09:23:55;101409.25;;;-2.21;96.37
68580;BME280;55555;52.136;5.424;2022-11-20T09:26:23;101402.50;;;-2.13;97.31
68580;BME280;55555;52.136;5.424;2022-11-20T09:28:51;101392.25;;;-2.07;97.07
68580;BME280;55555;52.136;5.424;2022-11-20T09:31:25;101382.81;;;-2.02;96.87
68580;BME280;55555;52.136;5.424;2022-11-20T09:33:53;101382.16;;;-1.93;97.01
68580;BME280;55555;52.136;5.424;2022-11-20T09:36:20;101384.09;;;-1.86;96.79
68580;BME280;55555;52.136;5.424;2022-11-20T09:38:48;101377.34;;;-1.78;97.79
68580;BME280;55555;52.136;5.424;2022-11-20T09:49:39;101363.34;;;-1.45;97.65
68580;BME280;55555;52.136;5.424;2022-11-20T09:52:25;101360.13;;;-1.34;96.98
68580;BME280;55555;52.136;5.424;2022-11-20T09:55:08;101364.66;;;-1.25;97.76
68580;BME280;55555;52.136;5.424;2022-11-20T09:57:42;101370.00;;;-1.21;97.12
68580;BME280;55555;52.136;5.424;2022-11-20T10:00:13;101361.41;;;-1.15;96.77
68580;BME280;55555;52.136;5.424;2022-11-20T10:02:49;101355.56;;;-1.03;97.60
68580;BME280;55555;52.136;5.424;2022-11-20T10:05:40;101356.56;;;-0.97;97.74
68580;BME280;55555;52.136;5.424;2022-11-20T10:08:22;101361.84;;;-0.94;97.38
68580;BME280;55555;52.136;5.424;2022-11-20T10:13:42;101339.47;;;-0.81;97.57
68580;BME280;55555;52.136;5.424;2022-11-20T10:17:02;101346.69;;;-0.69;97.66
68580;BME280;55555;52.136;5.424;2022-11-20T10:31:43;101306.19;;;0.05;97.83
68580;BME280;55555;52.136;5.424;2022-11-20T10:35:19;101316.78;;;0.14;98.36
68580;BME280;55555;52.136;5.424;2022-11-20T10:37:37;101295.00;;;0.15;97.49
68580;BME280;55555;52.136;5.424;2022-11-20T10:40:31;101289.78;;;0.15;96.83
68580;BME280;55555;52.136;5.424;2022-11-20T10:43:13;101284.59;;;0.18;96.79
68580;BME280;55555;52.136;5.424;2022-11-20T10:46:03;101295.94;;;0.19;96.59
68580;BME280;55555;52.136;5.424;2022-11-20T10:48:36;101288.16;;;0.23;97.46
68580;BME280;55555;52.136;5.424;2022-11-20T10:54:39;101272.47;;;0.25;96.89
68580;BME280;55555;52.136;5.424;2022-11-20T11:00:20;101252.47;;;0.28;97.21
68580;BME280;55555;52.136;5.424;2022-11-20T11:02:54;101252.53;;;0.33;97.21
68580;BME280;55555;52.136;5.424;2022-11-20T11:05:43;101260.44;;;0.36;98.16
68580;BME280;55555;52.136;5.424;2022-11-20T11:08:18;101250.00;;;0.38;96.48
68580;BME280;55555;52.136;5.424;2022-11-20T11:10:55;101248.31;;;0.41;97.27
68580;BME280;55555;52.136;5.424;2022-11-20T11:13:26;101246.59;;;0.45;96.79
68580;BME280;55555;52.136;5.424;2022-11-20T11:15:56;101232.69;;;0.49;96.54
68580;BME280;55555;52.136;5.424;2022-11-20T11:18:30;101229.28;;;0.53;97.24
68580;BME280;55555;52.136;5.424;2022-11-20T11:21:01;101222.28;;;0.52;96.58
68580;BME280;55555;52.136;5.424;2022-11-20T11:23:38;101215.31;;;0.52;96.53
68580;BME280;55555;52.136;5.424;2022-11-20T11:26:23;101204.84;;;0.55;97.35
68580;BME280;55555;52.136;5.424;2022-11-20T11:29:03;101198.78;;;0.58;97.36
68580;BME280;55555;52.136;5.424;2022-11-20T11:31:33;101196.16;;;0.58;96.83
68580;BME280;55555;52.136;5.424;2022-11-20T11:34:15;101197.09;;;0.61;97.12
68580;BME280;55555;52.136;5.424;2022-11-20T11:36:57;101188.38;;;0.62;97.02
68580;BME280;55555;52.136;5.424;2022-11-20T11:39:28;101178.78;;;0.66;97.43
68580;BME280;55555;52.136;5.424;2022-11-20T11:42:00;101170.97;;;0.69;97.26
68580;BME280;55555;52.136;5.424;2022-11-20T11:44:30;101162.28;;;0.71;97.99
68580;BME280;55555;52.136;5.424;2022-11-20T11:47:26;101168.41;;;0.72;96.70
68580;BME280;55555;52.136;5.424;2022-11-20T11:56:00;101151.91;;;0.79;97.20
68580;BME280;55555;52.136;5.424;2022-11-20T11:58:44;101149.31;;;0.82;98.36
68580;BME280;55555;52.136;5.424;2022-11-20T12:01:32;101150.19;;;0.81;97.91
68580;BME280;55555;52.136;5.424;2022-11-20T12:04:40;101144.13;;;0.88;97.60
68580;BME280;55555;52.136;5.424;2022-11-20T12:07:15;101142.38;;;0.89;97.35
68580;BME280;55555;52.136;5.424;2022-11-20T12:16:13;101116.28;;;0.98;97.75
68580;BME280;55555;52.136;5.424;2022-11-20T12:18:42;101111.06;;;1.01;98.16
68580;BME280;55555;52.136;5.424;2022-11-20T12:30:10;101109.47;;;1.15;98.77
68580;BME280;55555;52.136;5.424;2022-11-20T12:45:58;101084.16;;;1.17;98.80
68580;BME280;55555;52.136;5.424;2022-11-20T12:48:32;101081.53;;;1.20;99.23
68580;BME280;55555;52.136;5.424;2022-11-20T12:51:31;101077.19;;;1.21;98.78
68580;BME280;55555;52.136;5.424;2022-11-20T12:57:09;101030.09;;;1.28;98.97
68580;BME280;55555;52.136;5.424;2022-11-20T13:08:40;101011.75;;;1.33;99.23
68580;BME280;55555;52.136;5.424;2022-11-20T13:11:25;101020.53;;;1.38;99.03
68580;BME280;55555;52.136;5.424;2022-11-20T13:14:23;101017.03;;;1.39;99.10
68580;BME280;55555;52.136;5.424;2022-11-20T13:17:09;101014.41;;;1.42;99.40
68580;BME280;55555;52.136;5.424;2022-11-20T13:19:53;101003.97;;;1.46;99.01
68580;BME280;55555;52.136;5.424;2022-11-20T13:22:45;100990.88;;;1.48;99.30
68580;BME280;55555;52.136;5.424;2022-11-20T13:25:36;100990.88;;;1.53;98.81
68580;BME280;55555;52.136;5.424;2022-11-20T13:28:28;100990.00;;;1.52;99.33
68580;BME280;55555;52.136;5.424;2022-11-20T13:30:57;100981.28;;;1.55;98.99
68580;BME280;55555;52.136;5.424;2022-11-20T13:33:35;100982.16;;;1.54;98.75
68580;BME280;55555;52.136;5.424;2022-11-20T13:36:06;100980.41;;;1.56;99.95
68580;BME280;55555;52.136;5.424;2022-11-20T13:38:50;100987.41;;;1.55;99.54
68580;BME280;55555;52.136;5.424;2022-11-20T13:41:32;100979.56;;;1.60;100.00
68580;BME280;55555;52.136;5.424;2022-11-20T13:44:44;100981.31;;;1.59;99.12
68580;BME280;55555;52.136;5.424;2022-11-20T13:47:26;100964.72;;;1.66;99.83
68580;BME280;55555;52.136;5.424;2022-11-20T13:49:57;100958.59;;;1.64;98.84
68580;BME280;55555;52.136;5.424;2022-11-20T13:55:54;100951.63;;;1.68;99.52
68580;BME280;55555;52.136;5.424;2022-11-20T14:01:32;100955.13;;;1.68;99.42
68580;BME280;55555;52.136;5.424;2022-11-20T14:04:16;100955.13;;;1.68;99.28
68580;BME280;55555;52.136;5.424;2022-11-20T14:06:48;100950.78;;;1.70;99.66
68580;BME280;55555;52.136;5.424;2022-11-20T14:09:28;100950.78;;;1.70;99.62
68580;BME280;55555;52.136;5.424;2022-11-20T14:11:57;100949.91;;;1.73;99.86
68580;BME280;55555;52.136;5.424;2022-11-20T14:14:30;100935.03;;;1.75;100.00
68580;BME280;55555;52.136;5.424;2022-11-20T14:17:23;100918.44;;;1.76;100.00
68580;BME280;55555;52.136;5.424;2022-11-20T14:20:05;100914.94;;;1.77;100.00
68580;BME280;55555;52.136;5.424;2022-11-20T14:22:38;100902.72;;;1.80;100.00
68580;BME280;55555;52.136;5.424;2022-11-20T14:27:56;100863.38;;;1.85;100.00
68580;BME280;55555;52.136;5.424;2022-11-20T14:30:28;100875.63;;;1.88;100.00
68580;BME280;55555;52.136;5.424;2022-11-20T14:33:03;100880.00;;;1.89;100.00
68580;BME280;55555;52.136;5.424;2022-11-20T14:35:37;100894.88;;;1.90;100.00
68580;BME280;55555;52.136;5.424;2022-11-20T14:38:21;100899.25;;;1.92;100.00
68580;BME280;55555;52.136;5.424;2022-11-20T14:40:53;100882.63;;;1.92;100.00
68580;BME280;55555;52.136;5.424;2022-11-20T14:43:27;100866.91;;;1.92;100.00
68580;BME280;55555;52.136;5.424;2022-11-20T14:46:00;100856.41;;;1.92;100.00
68580;BME280;55555;52.136;5.424;2022-11-20T14:48:39;100867.75;;;1.95;100.00
68580;BME280;55555;52.136;5.424;2022-11-20T14:51:11;100857.28;;;1.97;100.00
68580;BME280;55555;52.136;5.424;2022-11-20T14:53:51;100854.63;;;1.95;100.00
68580;BME280;55555;52.136;5.424;2022-11-20T14:56:25;100855.53;;;1.97;100.00